Time;durP1;ratioP1;P1;durP2;ratioP2;P2;SDS_P1;SDS_P2;PMS_P1;PMS_P2;Temp;Humidity;BMP_temperature;BMP_pressure;BME280_temperature;BME280_humidity;BME280_pressure;Samples;Min_cycle;Max_cycle;Signal;HPM_P1;HPM_P2
2021/07/29 00:01:33;;;;;;;;;;;15.30;94.20;;;18.65;80.36;100793.88;4370410;40;98300;-76
2021/07/29 00:04:37;;;;;;;;;;;15.30;94.20;;;18.51;80.54;100793.53;4360851;39;97569;-77
2021/07/29 00:07:41;;;;;;;;;;;15.20;94.20;;;18.56;81.07;100787.84;4364007;39;97471;-76
2021/07/29 00:10:49;;;;;;;;;;;15.20;94.20;;;18.37;80.84;100779.66;4364769;39;97519;-77
2021/07/29 00:13:57;;;;;;;;;;;15.20;94.30;;;18.31;81.41;100789.19;4372558;39;97323;-77
2021/07/29 00:17:16;;;;;;;;;;;15.10;94.20;;;18.45;80.98;100784.09;4369948;40;96810;-77
2021/07/29 00:20:22;;;;;;;;;;;15.10;94.20;;;18.32;81.30;100795.41;4371157;40;97603;-76
2021/07/29 00:23:27;;;;;;;;;;;15.10;94.30;;;18.22;81.22;100788.53;4372835;39;97490;-76
2021/07/29 00:26:32;;;;;;;;;;;15.10;94.30;;;18.18;81.16;100784.97;4368075;39;96830;-76
2021/07/29 00:29:36;;;;;;;;;;;15.00;94.20;;;18.20;81.60;100787.34;4371885;39;97677;-77
2021/07/29 00:32:42;;;;;;;;;;;15.00;94.30;;;18.14;81.26;100780.59;4378672;39;97677;-77
2021/07/29 00:35:45;;;;;;;;;;;15.00;94.30;;;18.12;81.63;100780.94;4370686;39;97597;-77
2021/07/29 00:38:49;;;;;;;;;;;15.00;94.30;;;18.15;81.24;100772.09;4359693;40;97626;-77
2021/07/29 00:41:55;;;;;;;;;;;15.00;94.30;;;18.21;81.31;100770.69;4371299;40;98435;-77
2021/07/29 00:44:59;;;;;;;;;;;14.90;94.30;;;18.13;81.05;100768.16;4359692;40;98370;-77
2021/07/29 00:48:06;;;;;;;;;;;14.90;94.30;;;18.12;81.17;100759.25;4371294;40;97195;-77
2021/07/29 00:51:12;;;;;;;;;;;14.90;94.30;;;18.11;81.62;100754.16;4362196;40;97935;-77
2021/07/29 00:54:16;;;;;;;;;;;14.90;94.40;;;18.11;81.92;100754.97;4361934;40;98453;-77
2021/07/29 00:57:21;;;;;;;;;;;14.90;94.40;;;18.10;81.64;100739.03;4354433;40;100338;-77
2021/07/29 01:00:25;;;;;;;;;;;14.90;94.40;;;18.14;81.97;100743.41;4368563;39;97423;-77
2021/07/29 01:03:29;;;;;;;;;;;14.90;94.50;;;18.15;81.37;100747.69;4354680;40;97771;-77
2021/07/29 01:06:33;;;;;;;;;;;14.90;94.50;;;18.15;81.26;100752.31;4360758;40;97800;-77
2021/07/29 01:09:36;;;;;;;;;;;14.90;94.50;;;18.22;81.41;100747.88;4362860;40;97729;-77
2021/07/29 01:12:41;;;;;;;;;;;14.90;94.50;;;18.25;81.47;100754.53;4371660;40;97639;-77
2021/07/29 01:15:45;;;;;;;;;;;14.90;94.50;;;18.24;81.40;100747.53;4369343;39;97349;-77
2021/07/29 01:18:51;;;;;;;;;;;15.00;94.50;;;18.27;81.27;100752.28;4369475;40;97763;-77
2021/07/29 01:21:58;;;;;;;;;;;14.90;94.50;;;18.25;81.27;100749.09;4371458;40;97533;-77
2021/07/29 01:25:04;;;;;;;;;;;14.90;94.40;;;18.36;81.63;100761.00;4367748;40;96699;-77
2021/07/29 01:28:10;;;;;;;;;;;14.90;94.50;;;18.52;81.98;100759.06;4369745;39;97923;-77
2021/07/29 01:31:13;;;;;;;;;;;15.00;94.70;;;18.66;82.06;100762.88;4369159;39;97670;-77
2021/07/29 01:34:18;;;;;;;;;;;15.10;94.70;;;18.72;81.30;100747.88;4370364;39;97639;-77
2021/07/29 01:37:23;;;;;;;;;;;15.10;94.70;;;18.69;80.48;100754.03;4369496;40;97521;-77
2021/07/29 01:40:28;;;;;;;;;;;15.20;94.60;;;18.66;80.69;100743.88;4361796;40;99346;-77
2021/07/29 01:43:33;;;;;;;;;;;15.20;94.60;;;18.57;80.63;100748.69;4368928;40;97459;-77
2021/07/29 01:46:36;;;;;;;;;;;15.10;94.50;;;18.50;80.97;100745.84;4369054;40;97707;-77
2021/07/29 01:49:40;;;;;;;;;;;15.10;94.50;;;18.51;80.54;100746.63;4368240;40;98088;-77
2021/07/29 01:52:46;;;;;;;;;;;15.10;94.40;;;18.55;80.40;100748.28;4358317;40;97489;-77
2021/07/29 01:55:50;;;;;;;;;;;15.10;94.40;;;18.38;80.76;100758.72;4370616;39;96881;-77
2021/07/29 01:58:54;;;;;;;;;;;15.10;94.40;;;18.39;80.38;100750.25;4354652;40;97764;-77
2021/07/29 02:01:57;;;;;;;;;;;15.00;94.30;;;18.37;80.65;100760.66;4368033;40;97644;-77
2021/07/29 02:05:03;;;;;;;;;;;15.00;94.40;;;18.43;81.34;100747.59;4353763;40;96691;-76
2021/07/29 02:08:09;;;;;;;;;;;15.00;94.50;;;18.42;81.38;100749.53;4377758;39;97549;-77
2021/07/29 02:11:13;;;;;;;;;;;15.00;94.50;;;18.53;80.92;100755.97;4372282;39;97594;-77
2021/07/29 02:14:18;;;;;;;;;;;15.00;94.50;;;18.54;80.75;100762.22;4373822;39;97615;-76
2021/07/29 02:17:22;;;;;;;;;;;15.00;94.50;;;18.56;81.82;100759.94;4371413;39;97717;-76
2021/07/29 02:20:26;;;;;;;;;;;15.10;94.60;;;18.67;81.82;100767.16;4356085;40;96672;-76
2021/07/29 02:23:31;;;;;;;;;;;15.10;94.70;;;18.78;81.45;100767.41;4371483;39;97099;-77
2021/07/29 02:26:35;;;;;;;;;;;15.20;94.60;;;18.77;81.29;100763.88;4370339;39;97763;-77
2021/07/29 02:29:39;;;;;;;;;;;15.20;94.70;;;18.74;81.20;100767.31;4371588;40;97516;-77
2021/07/29 02:32:43;;;;;;;;;;;15.20;94.60;;;18.70;80.91;100768.38;4372045;39;96956;-77
2021/07/29 02:35:49;;;;;;;;;;;15.20;94.60;;;18.70;81.28;100762.94;4364559;40;97486;-77
2021/07/29 02:38:54;;;;;;;;;;;15.20;94.50;;;18.60;81.09;100771.66;4370437;40;98311;-77
2021/07/29 02:41:58;;;;;;;;;;;15.20;94.60;;;18.75;82.00;100768.88;4361208;40;97468;-77
2021/07/29 02:45:03;;;;;;;;;;;15.20;94.60;;;18.84;81.82;100783.03;4362832;40;96584;-76
2021/07/29 02:48:07;;;;;;;;;;;15.20;94.70;;;18.98;81.73;100775.22;4361052;40;97845;-77
2021/07/29 02:51:11;;;;;;;;;;;15.30;94.70;;;19.07;81.39;100778.50;4363938;40;97003;-77
2021/07/29 02:54:16;;;;;;;;;;;15.40;94.70;;;19.14;81.24;100775.91;4362986;40;96704;-77
2021/07/29 02:57:20;;;;;;;;;;;15.50;94.70;;;19.16;81.75;100779.09;4372944;39;97421;-77
2021/07/29 03:00:24;;;;;;;;;;;15.50;94.70;;;19.20;81.05;100783.47;4369996;40;96750;-77
2021/07/29 03:03:27;;;;;;;;;;;15.60;94.70;;;19.19;80.93;100773.75;4370248;39;96749;-77
2021/07/29 03:06:31;;;;;;;;;;;15.60;94.70;;;19.08;80.12;100770.00;4367685;40;97613;-77
2021/07/29 03:09:36;;;;;;;;;;;15.60;94.60;;;18.98;81.00;100784.13;4371328;39;97691;-77
2021/07/29 03:12:40;;;;;;;;;;;15.50;94.50;;;18.97;80.87;100785.28;4372015;40;97797;-77
2021/07/29 03:15:44;;;;;;;;;;;15.50;94.50;;;18.99;81.32;100779.50;4363728;39;97809;-77
2021/07/29 03:18:48;;;;;;;;;;;15.50;94.60;;;18.99;81.28;100777.56;4370351;40;97113;-77
2021/07/29 03:21:51;;;;;;;;;;;15.50;94.60;;;18.98;81.20;100788.78;4380252;39;97720;-77
2021/07/29 03:24:56;;;;;;;;;;;15.50;94.60;;;18.88;81.74;100794.00;4370677;40;97462;-77
2021/07/29 03:28:00;;;;;;;;;;;15.50;94.70;;;18.92;82.52;100792.13;4371149;40;97552;-77
2021/07/29 03:31:07;;;;;;;;;;;15.50;94.70;;;18.96;81.89;100794.56;4371897;39;97740;-77
2021/07/29 03:34:11;;;;;;;;;;;15.50;94.70;;;19.00;82.19;100800.09;4370718;40;97524;-76
2021/07/29 03:37:15;;;;;;;;;;;15.60;94.80;;;19.02;82.37;100805.94;4362716;40;97493;-77
2021/07/29 03:40:20;;;;;;;;;;;15.60;94.80;;;19.08;82.31;100802.59;4368685;40;96821;-77
2021/07/29 03:43:24;;;;;;;;;;;15.60;94.70;;;19.11;82.51;100801.09;4370835;39;98708;-76
2021/07/29 03:46:27;;;;;;;;;;;15.60;94.80;;;19.10;82.08;100804.94;4343842;40;98329;-76
2021/07/29 03:49:34;;;;;;;;;;;15.70;94.80;;;19.07;81.89;100811.09;4370643;40;96604;-77
2021/07/29 03:52:38;;;;;;;;;;;15.70;94.70;;;19.09;82.03;100817.75;4371433;40;97658;-77
2021/07/29 03:55:44;;;;;;;;;;;15.70;94.70;;;19.11;81.35;100812.75;4360430;40;96713;-77
2021/07/29 03:58:48;;;;;;;;;;;15.70;94.70;;;19.12;81.54;100810.81;4362051;40;98631;-76
2021/07/29 04:01:52;;;;;;;;;;;15.70;94.70;;;19.14;81.58;100811.22;4359193;40;97595;-76
2021/07/29 04:04:55;;;;;;;;;;;15.70;94.60;;;19.19;81.88;100810.97;4371169;39;96751;-76
2021/07/29 04:07:59;;;;;;;;;;;15.70;94.60;;;19.18;82.10;100812.91;4354983;40;96723;-76
2021/07/29 04:11:08;;;;;;;;;;;15.80;94.70;;;19.20;81.53;100801.69;4368832;40;97859;-77
2021/07/29 04:14:12;;;;;;;;;;;15.80;94.60;;;19.18;81.72;100795.81;4363072;39;97522;-76
2021/07/29 04:17:17;;;;;;;;;;;15.80;94.60;;;19.21;81.37;100781.53;4368203;40;99581;-76
2021/07/29 04:20:21;;;;;;;;;;;15.80;94.60;;;19.28;81.75;100787.13;4363141;40;97499;-76
2021/07/29 04:23:24;;;;;;;;;;;15.80;94.60;;;19.35;81.20;100793.47;4370946;40;96667;-76
2021/07/29 04:26:29;;;;;;;;;;;15.90;94.60;;;19.38;81.40;100792.78;4353991;40;97413;-76
2021/07/29 04:29:34;;;;;;;;;;;15.90;94.50;;;19.41;80.81;100796.69;4369894;39;97481;-76
2021/07/29 04:32:38;;;;;;;;;;;15.90;94.50;;;19.47;80.31;100792.53;4354843;40;96881;-76
2021/07/29 04:35:42;;;;;;;;;;;15.90;94.40;;;19.49;80.50;100801.09;4371542;39;96967;-76
2021/07/29 04:38:46;;;;;;;;;;;16.00;94.40;;;19.79;79.92;100807.50;4368966;39;96884;-76
2021/07/29 04:41:50;;;;;;;;;;;16.10;94.30;;;19.76;80.34;100813.66;4360739;40;97119;-77
2021/07/29 04:44:54;;;;;;;;;;;16.10;94.20;;;19.61;80.75;100809.13;4360738;40;97497;-76
2021/07/29 04:47:58;;;;;;;;;;;16.10;94.20;;;19.52;80.91;100816.72;4370505;39;96939;-77
2021/07/29 04:51:03;;;;;;;;;;;16.10;94.20;;;19.46;81.11;100813.50;4371174;40;98208;-77
2021/07/29 04:54:07;;;;;;;;;;;16.10;94.30;;;19.50;80.42;100816.25;4369940;40;97161;-76
2021/07/29 04:57:12;;;;;;;;;;;16.10;94.30;;;19.61;79.98;100820.75;4359590;40;97592;-76
2021/07/29 05:00:16;;;;;;;;;;;16.10;94.30;;;19.88;79.97;100827.13;4361953;40;96931;-76
2021/07/29 05:03:20;;;;;;;;;;;16.30;94.30;;;20.15;79.41;100826.06;4355408;40;96770;-76
2021/07/29 05:06:23;;;;;;;;;;;16.40;94.10;;;20.31;79.31;100813.13;4369073;40;97836;-77
2021/07/29 05:09:27;;;;;;;;;;;16.50;93.90;;;20.51;78.80;100822.78;4370665;40;97617;-76
2021/07/29 05:12:32;;;;;;;;;;;16.70;93.80;;;20.54;79.32;100832.94;4369216;40;96918;-76
2021/07/29 05:15:37;;;;;;;;;;;16.80;93.80;;;20.42;78.99;100831.19;4361459;40;97568;-76
2021/07/29 05:18:40;;;;;;;;;;;16.80;93.60;;;20.20;80.15;100831.22;4372670;40;97940;-76
2021/07/29 05:21:44;;;;;;;;;;;16.80;93.60;;;20.10;79.90;100829.88;4372967;39;97489;-76
2021/07/29 05:24:48;;;;;;;;;;;16.70;93.60;;;20.06;79.79;100833.66;4363942;40;96746;-76
2021/07/29 05:27:54;;;;;;;;;;;16.70;93.60;;;20.08;79.82;100834.09;4372896;39;96576;-76
2021/07/29 05:30:58;;;;;;;;;;;16.60;93.70;;;20.27;80.05;100828.59;4376272;39;97792;-76
2021/07/29 05:34:05;;;;;;;;;;;16.60;93.80;;;20.29;79.35;100837.19;4368710;40;96931;-77
2021/07/29 05:37:08;;;;;;;;;;;16.70;93.70;;;20.17;79.44;100823.78;4370144;40;99278;-77
2021/07/29 05:40:15;;;;;;;;;;;16.80;93.60;;;20.28;78.93;100835.63;4370473;40;97045;-76
2021/07/29 05:43:20;;;;;;;;;;;16.80;93.60;;;20.35;79.23;100841.16;4371197;39;97504;-77
2021/07/29 05:46:24;;;;;;;;;;;16.90;93.50;;;20.36;78.83;100848.97;4371936;39;98619;-77
2021/07/29 05:49:28;;;;;;;;;;;16.90;93.50;;;20.48;78.56;100846.06;4371176;40;98020;-77
2021/07/29 05:52:31;;;;;;;;;;;16.90;93.40;;;25.21;66.13;100829.78;4371954;40;96693;-77
2021/07/29 05:55:36;;;;;;;;;;;18.80;93.10;;;28.29;57.82;100825.63;4368766;39;97544;-77
2021/07/29 05:58:41;;;;;;;;;;;21.20;86.30;;;32.18;50.21;100824.94;4367927;40;97686;-77
2021/07/29 06:01:45;;;;;;;;;;;24.20;80.40;;;34.84;45.74;100819.13;4371960;39;97579;-77
2021/07/29 06:04:49;;;;;;;;;;;26.80;74.20;;;36.28;43.97;100815.91;4368773;40;97513;-78
2021/07/29 06:07:52;;;;;;;;;;;28.80;70.30;;;37.78;42.62;100811.44;4366293;40;97594;-78
2021/07/29 06:10:56;;;;;;;;;;;30.50;68.30;;;38.94;42.17;100799.78;4369824;39;98117;-76
2021/07/29 06:14:03;;;;;;;;;;;32.00;66.70;;;39.99;41.79;100799.44;4368358;40;98207;-76
2021/07/29 06:17:07;;;;;;;;;;;33.20;65.10;;;41.02;41.41;100813.72;4377792;39;97260;-77
2021/07/29 06:20:12;;;;;;;;;;;34.30;64.70;;;40.74;42.80;100807.22;4362457;39;98978;-77
2021/07/29 06:23:16;;;;;;;;;;;34.70;63.60;;;41.87;41.33;100812.72;4369304;40;97611;-77
2021/07/29 06:26:20;;;;;;;;;;;35.40;63.60;;;41.39;43.80;100798.94;4370466;39;97660;-77
2021/07/29 06:29:26;;;;;;;;;;;35.70;63.20;;;41.43;43.82;100802.25;4371535;39;97119;-77
2021/07/29 06:32:29;;;;;;;;;;;35.50;64.00;;;42.09;42.88;100813.50;4363013;40;97680;-77
2021/07/29 06:35:33;;;;;;;;;;;35.70;64.10;;;40.26;46.78;100798.09;4370603;39;96998;-77
2021/07/29 06:38:38;;;;;;;;;;;35.40;64.30;;;38.88;49.82;100801.78;4362170;40;97139;-72
2021/07/29 06:41:42;;;;;;;;;;;34.60;66.10;;;38.84;50.26;100806.84;4371281;40;98523;-74
2021/07/29 06:44:47;;;;;;;;;;;34.20;66.70;;;37.44;53.51;100803.03;4367219;40;96808;-75
2021/07/29 06:47:51;;;;;;;;;;;33.70;68.20;;;36.76;54.37;100826.59;4360742;40;97413;-75
2021/07/29 06:50:54;;;;;;;;;;;33.10;68.40;;;33.15;60.68;100815.16;4362891;40;97495;-74
2021/07/29 06:53:59;;;;;;;;;;;31.30;69.60;;;36.70;53.40;100822.94;4362451;40;97633;-74
2021/07/29 06:57:06;;;;;;;;;;;31.70;70.60;;;35.38;55.44;100821.06;4371371;39;98408;-72
2021/07/29 07:00:13;;;;;;;;;;;31.10;71.20;;;36.07;54.03;100817.75;4367594;40;98011;-74
2021/07/29 07:03:16;;;;;;;;;;;31.10;71.50;;;33.74;57.65;100834.41;4371799;39;98076;-75
2021/07/29 07:06:20;;;;;;;;;;;30.40;70.90;;;33.82;57.43;100821.00;4371060;40;97616;-74
2021/07/29 07:09:26;;;;;;;;;;;29.80;72.20;;;36.17;51.49;100807.31;4362507;40;97621;-74
2021/07/29 07:12:30;;;;;;;;;;;30.10;73.20;;;38.95;45.56;100826.56;4371261;39;97670;-74
2021/07/29 07:15:35;;;;;;;;;;;31.60;70.10;;;37.77;48.86;100821.09;4371262;39;97148;-74
2021/07/29 07:18:39;;;;;;;;;;;31.70;70.50;;;41.02;42.43;100803.25;4355208;40;99240;-74
2021/07/29 07:21:43;;;;;;;;;;;32.70;69.40;;;41.84;41.10;100825.81;4370778;39;96661;-71
2021/07/29 07:24:46;;;;;;;;;;;33.70;66.70;;;40.73;43.88;100816.94;4369489;39;97517;-72
2021/07/29 07:27:50;;;;;;;;;;;33.80;66.90;;;39.19;46.55;100823.53;4370848;39;97845;-71
2021/07/29 07:30:55;;;;;;;;;;;33.40;67.30;;;40.55;44.17;100843.44;4371286;40;96677;-71
2021/07/29 07:34:00;;;;;;;;;;;33.70;66.90;;;38.19;49.25;100852.31;4370434;39;97585;-72
2021/07/29 07:37:05;;;;;;;;;;;33.30;67.30;;;41.85;41.38;100843.44;4367448;40;97646;-72
2021/07/29 07:40:10;;;;;;;;;;;33.80;66.80;;;43.39;39.04;100852.09;4371744;40;98828;-69
2021/07/29 07:43:14;;;;;;;;;;;34.30;65.60;;;41.32;43.14;100860.59;4370378;39;96551;-71
2021/07/29 07:46:19;;;;;;;;;;;34.30;65.50;;;36.30;53.26;100856.09;4370155;39;97490;-74
2021/07/29 07:49:23;;;;;;;;;;;32.90;67.60;;;33.91;58.11;100859.97;4370189;40;97169;-72
2021/07/29 07:52:26;;;;;;;;;;;31.30;70.10;;;36.20;51.19;100862.19;4368910;40;98063;-72
2021/07/29 07:55:31;;;;;;;;;;;30.50;71.10;;;36.08;51.81;100861.16;4371353;39;97820;-72
2021/07/29 07:58:34;;;;;;;;;;;30.60;71.40;;;33.26;58.23;100853.72;4379121;39;97783;-72
2021/07/29 08:01:40;;;;;;;;;;;29.70;72.40;;;33.86;55.68;100849.44;4371529;39;96746;-72
2021/07/29 08:04:44;;;;;;;;;;;29.20;73.00;;;37.00;47.55;100860.13;4370442;40;97018;-72
2021/07/29 08:07:48;;;;;;;;;;;29.40;72.70;;;37.16;47.38;100848.47;4359601;40;97463;-73
2021/07/29 08:10:53;;;;;;;;;;;29.90;72.00;;;37.60;46.83;100849.31;4362217;39;97714;-73
2021/07/29 08:13:57;;;;;;;;;;;30.20;72.20;;;41.39;38.18;100855.22;4372017;39;97030;-74
2021/07/29 08:17:04;;;;;;;;;;;30.70;70.90;;;43.86;34.61;100854.28;4362319;40;98031;-73
2021/07/29 08:20:09;;;;;;;;;;;31.80;69.80;;;44.34;33.81;100845.06;4359725;40;97574;-73
2021/07/29 08:23:13;;;;;;;;;;;32.60;67.80;;;37.83;47.48;100835.97;4370411;39;97066;-73
2021/07/29 08:26:17;;;;;;;;;;;32.30;67.30;;;36.91;49.21;100832.22;4379510;39;97411;-74
2021/07/29 08:29:20;;;;;;;;;;;31.40;69.10;;;40.41;40.46;100832.38;4369583;40;98374;-71
2021/07/29 08:32:25;;;;;;;;;;;30.70;71.10;;;36.86;49.53;100830.09;4369743;39;97689;-73
2021/07/29 08:35:30;;;;;;;;;;;30.60;71.60;;;35.22;52.76;100833.34;4353228;40;96842;-73
2021/07/29 08:38:34;;;;;;;;;;;29.80;72.90;;;36.59;48.68;100842.28;4367362;39;97116;-75
2021/07/29 08:41:38;;;;;;;;;;;29.10;74.60;;;41.22;38.58;100831.91;4359203;39;97531;-74
2021/07/29 08:44:41;;;;;;;;;;;29.50;74.10;;;40.92;40.34;100843.34;4359204;40;97565;-73
2021/07/29 08:47:49;;;;;;;;;;;30.30;73.80;;;38.14;46.67;100830.59;4359169;40;100236;-75
2021/07/29 08:50:54;;;;;;;;;;;30.40;73.50;;;38.68;46.20;100832.59;4368609;40;98521;-74
2021/07/29 08:53:59;;;;;;;;;;;30.20;73.90;;;40.69;41.34;100834.06;4368752;39;97654;-74
2021/07/29 08:57:13;;;;;;;;;;;30.50;74.10;;;42.29;38.87;100832.13;4375344;39;97504;-73
2021/07/29 09:00:18;;;;;;;;;;;31.00;73.30;;;42.67;39.32;100836.84;4368426;39;98168;-74
2021/07/29 09:03:26;;;;;;;;;;;31.50;72.60;;;42.17;39.75;100837.03;4368421;40;96751;-74
2021/07/29 09:06:30;;;;;;;;;;;31.80;72.70;;;42.93;39.25;100852.13;4367338;39;97237;-73
2021/07/29 09:09:45;;;;;;;;;;;32.10;72.70;;;38.09;49.45;100839.69;4368331;39;98069;-73
2021/07/29 09:13:11;;;;;;;;;;;31.80;72.00;;;37.94;48.65;100838.16;4368313;40;97569;-76
2021/07/29 09:16:15;;;;;;;;;;;31.20;72.60;;;37.80;48.44;100830.56;4369437;40;96902;-74
2021/07/29 09:19:30;;;;;;;;;;;30.40;73.90;;;37.85;48.46;100839.06;4368773;39;96818;-73
2021/07/29 09:22:34;;;;;;;;;;;30.20;75.10;;;35.45;54.59;100846.63;4370223;40;97539;-73
2021/07/29 09:25:38;;;;;;;;;;;30.00;75.60;;;34.86;55.90;100850.06;4368654;40;97196;-73
2021/07/29 09:28:42;;;;;;;;;;;29.50;75.40;;;38.53;46.73;100854.31;4359801;40;96691;-74
2021/07/29 09:31:46;;;;;;;;;;;29.50;76.60;;;36.68;50.75;100858.19;4376016;39;97991;-75
2021/07/29 09:34:52;;;;;;;;;;;29.80;75.70;;;33.14;59.28;100854.53;4371675;40;97244;-75
2021/07/29 09:37:56;;;;;;;;;;;29.40;75.30;;;30.39;65.03;100875.47;4363777;40;96657;-72
2021/07/29 09:41:06;;;;;;;;;;;28.20;75.70;;;28.52;68.89;100870.56;4371996;40;98618;-72
2021/07/29 09:44:09;;;;;;;;;;;26.90;76.60;;;27.46;70.62;100875.19;4368837;39;96911;-72
2021/07/29 09:47:13;;;;;;;;;;;25.80;78.00;;;27.26;70.53;100876.22;4371010;39;97655;-72
2021/07/29 09:50:18;;;;;;;;;;;24.90;79.50;;;32.20;56.76;100880.72;4371563;39;97640;-72
2021/07/29 09:53:23;;;;;;;;;;;24.90;82.50;;;31.15;60.56;100875.50;4369987;39;96731;-73
2021/07/29 09:56:27;;;;;;;;;;;25.50;82.50;;;29.97;63.93;100873.69;4370805;39;98154;-72
2021/07/29 09:59:51;;;;;;;;;;;25.60;81.80;;;32.38;57.83;100867.06;4373241;39;97014;-74
2021/07/29 10:02:57;;;;;;;;;;;25.80;82.80;;;33.28;56.59;100865.94;4371245;39;96721;-73
2021/07/29 10:06:06;;;;;;;;;;;26.30;82.30;;;33.13;57.52;100881.50;4373294;39;97718;-74
2021/07/29 10:09:13;;;;;;;;;;;26.70;81.70;;;31.79;61.00;100864.16;4377689;39;97059;-73
2021/07/29 10:12:30;;;;;;;;;;;26.80;80.90;;;31.88;61.52;100878.16;4370733;39;97585;-73
2021/07/29 10:15:39;;;;;;;;;;;26.80;81.50;;;31.29;62.98;100877.09;4371196;39;97271;-73
2021/07/29 10:19:07;;;;;;;;;;;26.80;81.40;;;31.10;62.84;100891.88;4371205;39;97493;-72
2021/07/29 10:22:23;;;;;;;;;;;26.70;80.30;;;29.72;65.44;100894.75;4379581;39;97542;-72
2021/07/29 10:26:10;;;;;;;;;;;26.30;79.70;;;28.08;68.08;100905.91;4371902;39;96653;-72
2021/07/29 10:29:25;;;;;;;;;;;25.60;79.80;;;26.87;70.51;100900.59;4378939;39;96711;-72
2021/07/29 10:32:47;;;;;;;;;;;24.60;80.50;;;26.69;70.52;100900.75;4370005;39;96726;-72
2021/07/29 10:35:51;;;;;;;;;;;24.00;81.70;;;27.37;69.04;100903.25;4379900;39;97538;-72
2021/07/29 10:39:06;;;;;;;;;;;23.80;83.80;;;27.87;68.26;100895.16;4370176;40;98384;-72
2021/07/29 10:42:25;;;;;;;;;;;23.80;84.70;;;28.22;67.85;100895.44;4362543;40;97791;-73
2021/07/29 10:45:48;;;;;;;;;;;24.00;85.20;;;28.56;68.10;100904.41;4371605;40;97834;-73
2021/07/29 10:49:15;;;;;;;;;;;24.20;86.40;;;29.11;67.31;100888.06;4370216;39;97395;-73
2021/07/29 10:52:19;;;;;;;;;;;24.50;86.90;;;29.67;66.78;100895.25;4359673;40;102339;-73
2021/07/29 10:55:24;;;;;;;;;;;24.80;86.80;;;30.10;66.32;100896.69;4368588;40;97546;-72
2021/07/29 10:58:39;;;;;;;;;;;25.10;86.60;;;29.76;67.77;100892.72;4363527;40;98734;-72
2021/07/29 11:01:47;;;;;;;;;;;25.30;86.10;;;29.44;67.81;100885.03;4376904;39;97615;-72
2021/07/29 11:05:19;;;;;;;;;;;25.30;85.50;;;29.00;68.46;100901.28;4370128;39;98001;-73
2021/07/29 11:08:29;;;;;;;;;;;25.20;84.60;;;29.15;68.54;100894.31;4367575;39;98742;-72
2021/07/29 11:11:38;;;;;;;;;;;25.10;85.10;;;29.57;67.82;100904.56;4377504;39;96820;-72
2021/07/29 11:14:41;;;;;;;;;;;25.20;85.80;;;29.95;67.72;100906.50;4368107;39;96847;-72
2021/07/29 11:17:46;;;;;;;;;;;25.40;86.20;;;30.01;67.33;100892.94;4367060;39;97220;-71
2021/07/29 11:20:50;;;;;;;;;;;25.50;85.10;;;29.82;68.09;100905.56;4361184;40;98373;-71
2021/07/29 11:23:54;;;;;;;;;;;25.50;85.20;;;30.06;67.80;100920.13;4359314;40;98269;-72
2021/07/29 11:26:59;;;;;;;;;;;25.60;85.70;;;30.26;67.51;100909.75;4370748;39;97554;-71
2021/07/29 11:30:07;;;;;;;;;;;25.60;85.30;;;30.67;66.45;100913.53;4370291;40;97699;-73
2021/07/29 11:33:21;;;;;;;;;;;25.90;85.20;;;30.89;66.18;100920.09;4361134;40;98289;-72
2021/07/29 11:36:26;;;;;;;;;;;26.10;84.80;;;30.95;66.77;100910.03;4377303;39;96590;-72
2021/07/29 11:39:37;;;;;;;;;;;26.30;85.10;;;30.87;67.26;100920.50;4370534;40;97581;-72
2021/07/29 11:42:42;;;;;;;;;;;26.40;84.90;;;30.82;68.04;100920.28;4370486;39;97566;-73
2021/07/29 11:45:46;;;;;;;;;;;26.40;85.10;;;30.18;68.85;100924.97;4370085;40;97599;-73
2021/07/29 11:49:04;;;;;;;;;;;26.30;84.50;;;29.60;69.28;100912.78;4370683;39;97515;-72
2021/07/29 11:52:09;;;;;;;;;;;26.00;84.30;;;29.10;69.98;100922.38;4371013;39;97544;-73
2021/07/29 11:55:16;;;;;;;;;;;25.70;84.30;;;29.35;69.42;100911.66;4369897;40;97496;-73
2021/07/29 11:58:21;;;;;;;;;;;25.50;84.80;;;29.72;68.79;100919.63;4361926;40;97420;-71
2021/07/29 12:01:25;;;;;;;;;;;25.50;85.50;;;30.03;68.30;100929.25;4371396;39;96667;-72
2021/07/29 12:04:32;;;;;;;;;;;25.60;85.50;;;29.82;68.53;100935.97;4367656;39;97534;-73
2021/07/29 12:07:37;;;;;;;;;;;25.60;85.30;;;29.95;68.39;100944.41;4351526;39;98312;-73
2021/07/29 12:10:41;;;;;;;;;;;25.60;85.40;;;29.72;68.93;100947.25;4361537;40;97562;-73
2021/07/29 12:13:47;;;;;;;;;;;25.60;85.10;;;29.41;69.51;100954.13;4371083;39;97568;-73
2021/07/29 12:16:52;;;;;;;;;;;25.60;85.30;;;29.51;70.33;100953.97;4369544;40;97291;-74
2021/07/29 12:19:57;;;;;;;;;;;25.50;86.40;;;29.70;69.24;100961.50;4367763;39;97763;-73
2021/07/29 12:23:10;;;;;;;;;;;25.60;85.90;;;29.34;69.57;100946.78;4370613;40;98840;-74
2021/07/29 12:26:16;;;;;;;;;;;25.50;85.50;;;29.39;70.25;100965.63;4367803;39;97523;-73
2021/07/29 12:29:42;;;;;;;;;;;25.40;86.60;;;29.47;70.04;100949.75;4362085;40;97599;-73
2021/07/29 12:32:46;;;;;;;;;;;25.40;86.50;;;29.38;70.23;100943.94;4358431;40;97246;-73
2021/07/29 12:35:58;;;;;;;;;;;25.40;86.70;;;29.39;70.30;100964.84;4368809;40;98192;-73
2021/07/29 12:39:03;;;;;;;;;;;25.40;86.70;;;29.51;70.77;100942.16;4360432;40;98060;-73
2021/07/29 12:42:23;;;;;;;;;;;25.50;87.90;;;30.00;70.14;100952.19;4368521;39;97578;-74
2021/07/29 12:45:53;;;;;;;;;;;25.60;88.00;;;29.42;70.57;100948.22;4367763;40;96718;-72
2021/07/29 12:48:58;;;;;;;;;;;25.70;86.70;;;29.38;71.00;100941.19;4369566;40;96763;-72
2021/07/29 12:52:04;;;;;;;;;;;25.60;86.50;;;30.06;69.15;100947.75;4370459;39;98492;-73
2021/07/29 12:55:09;;;;;;;;;;;25.80;86.60;;;30.42;68.30;100946.50;4361917;40;97184;-74
2021/07/29 12:58:15;;;;;;;;;;;26.00;86.20;;;30.67;67.47;100943.19;4370862;39;98861;-74
2021/07/29 13:01:20;;;;;;;;;;;26.20;85.30;;;30.65;67.76;100948.38;4368320;39;97503;-72
2021/07/29 13:04:24;;;;;;;;;;;26.30;85.00;;;30.53;68.29;100960.88;4369195;40;97541;-73
2021/07/29 13:07:30;;;;;;;;;;;26.40;85.40;;;30.52;68.95;100953.00;4366656;40;98038;-73
2021/07/29 13:10:35;;;;;;;;;;;26.40;86.00;;;30.25;70.12;100946.91;4370421;39;97475;-73
2021/07/29 13:13:38;;;;;;;;;;;26.30;86.30;;;30.33;69.75;100935.28;4362616;40;97452;-74
2021/07/29 13:16:43;;;;;;;;;;;26.40;86.20;;;30.36;69.61;100937.16;4369977;40;97045;-74
2021/07/29 13:19:47;;;;;;;;;;;26.40;85.90;;;29.50;70.76;100937.84;4371662;40;97037;-73
2021/07/29 13:22:51;;;;;;;;;;;26.10;85.30;;;30.06;69.68;100936.69;4362725;40;97500;-74
2021/07/29 13:25:55;;;;;;;;;;;26.10;86.00;;;30.06;69.74;100936.69;4367993;40;97489;-74
2021/07/29 13:28:59;;;;;;;;;;;26.10;86.00;;;30.15;69.58;100939.66;4367801;40;98417;-73
2021/07/29 13:32:08;;;;;;;;;;;26.10;86.00;;;30.08;69.85;100934.28;4353996;40;96983;-74
2021/07/29 13:35:11;;;;;;;;;;;26.10;86.10;;;29.99;70.06;100934.03;4371003;39;97513;-74
2021/07/29 13:38:15;;;;;;;;;;;26.10;86.10;;;29.70;70.54;100939.41;4350929;40;99555;-75
2021/07/29 13:41:19;;;;;;;;;;;26.00;86.20;;;29.84;70.27;100930.03;4368416;40;97497;-74
2021/07/29 13:44:23;;;;;;;;;;;25.90;86.40;;;29.31;71.40;100935.81;4368921;40;97427;-74
2021/07/29 13:47:28;;;;;;;;;;;25.80;86.40;;;29.04;71.75;100940.63;4361052;40;96720;-74
2021/07/29 13:50:34;;;;;;;;;;;25.60;86.40;;;29.66;70.32;100938.69;4358785;40;96941;-75
2021/07/29 13:53:38;;;;;;;;;;;25.60;86.70;;;30.23;68.92;100938.28;4369678;39;97525;-74
2021/07/29 13:56:41;;;;;;;;;;;25.80;86.60;;;30.22;69.45;100933.94;4368812;40;98548;-74
2021/07/29 13:59:45;;;;;;;;;;;25.90;86.60;;;29.45;70.78;100941.09;4361842;40;97635;-74
2021/07/29 14:02:51;;;;;;;;;;;25.90;86.50;;;28.86;71.98;100942.91;4362337;40;97539;-75
2021/07/29 14:05:55;;;;;;;;;;;25.60;86.20;;;28.68;71.84;100947.94;4371069;40;97613;-75